Time;durP1;ratioP1;P1;durP2;ratioP2;P2;SDS_P1;SDS_P2;PMS_P1;PMS_P2;Temp;Humidity;BMP_temperature;BMP_pressure;BME280_temperature;BME280_humidity;BME280_pressure;Samples;Min_cycle;Max_cycle;Signal;HPM_P1;HPM_P2
2023/08/29 00:02:23;;;;;;;5.57;4.65;;;11.70;99.90;;;;;;4915259;29;20031;-79
2023/08/29 00:04:48;;;;;;;5.30;4.80;;;11.70;99.90;;;;;;4917367;29;20131;-79
2023/08/29 00:07:14;;;;;;;5.22;4.72;;;11.70;99.90;;;;;;4915774;29;20116;-79
2023/08/29 00:09:39;;;;;;;5.03;4.55;;;11.70;99.90;;;;;;4918301;29;20040;-79
2023/08/29 00:12:05;;;;;;;6.22;4.97;;;11.60;99.90;;;;;;4922957;29;20106;-79
2023/08/29 00:14:31;;;;;;;5.22;4.72;;;11.60;99.90;;;;;;4919306;29;20111;-79
2023/08/29 00:16:57;;;;;;;6.20;4.95;;;11.60;99.90;;;;;;4920897;29;20020;-79
2023/08/29 00:19:22;;;;;;;6.70;6.10;;;11.50;99.90;;;;;;4918611;29;20035;-79
2023/08/29 00:21:48;;;;;;;6.32;5.70;;;11.50;99.90;;;;;;4918783;29;20040;-79
2023/08/29 00:24:14;;;;;;;5.55;5.05;;;11.50;99.90;;;;;;4918861;29;20038;-79
2023/08/29 00:26:41;;;;;;;6.47;5.78;;;11.50;99.90;;;;;;4920795;29;20024;-79
2023/08/29 00:29:06;;;;;;;7.18;5.60;;;11.50;99.90;;;;;;4918727;29;20039;-79
2023/08/29 00:31:32;;;;;;;7.80;5.72;;;11.40;99.90;;;;;;4920362;29;20039;-79
2023/08/29 00:33:57;;;;;;;7.32;5.75;;;11.50;99.90;;;;;;4919749;29;20025;-79
2023/08/29 00:36:23;;;;;;;7.07;6.35;;;11.40;99.90;;;;;;4919944;29;20055;-79
2023/08/29 00:38:49;;;;;;;6.55;5.95;;;11.40;99.90;;;;;;4918720;29;20070;-79
2023/08/29 00:41:14;;;;;;;7.10;6.32;;;11.40;99.90;;;;;;4919444;29;20037;-79
2023/08/29 00:43:40;;;;;;;7.03;6.38;;;11.30;99.90;;;;;;4922568;29;20161;-79
2023/08/29 00:46:09;;;;;;;7.10;6.43;;;11.30;99.90;;;;;;4920129;29;20035;-79
2023/08/29 00:48:35;;;;;;;8.05;6.63;;;11.30;99.90;;;;;;4920612;29;20043;-79
2023/08/29 00:51:00;;;;;;;10.57;7.47;;;11.30;99.90;;;;;;4920784;29;20035;-79
2023/08/29 00:53:27;;;;;;;7.90;6.28;;;11.30;99.90;;;;;;4919364;29;20051;-79
2023/08/29 00:55:53;;;;;;;6.72;6.10;;;11.30;99.90;;;;;;4918619;29;20171;-79
2023/08/29 00:58:19;;;;;;;6.45;5.85;;;11.30;99.90;;;;;;4916519;29;20060;-79
2023/08/29 01:00:46;;;;;;;7.85;6.05;;;11.20;99.90;;;;;;4917217;29;20107;-79
2023/08/29 01:03:11;;;;;;;7.70;6.18;;;11.10;99.90;;;;;;4919961;29;20036;-79
2023/08/29 01:05:37;;;;;;;6.18;5.55;;;11.10;99.90;;;;;;4920702;29;20054;-79
2023/08/29 01:08:03;;;;;;;6.55;5.85;;;11.10;99.90;;;;;;4918242;29;20051;-79
2023/08/29 01:10:51;;;;;;;7.07;6.38;;;11.00;99.90;;;;;;4918133;29;20035;-79
2023/08/29 01:13:44;;;;;;;6.20;5.60;;;10.90;99.90;;;;;;4920644;29;20051;-79
2023/08/29 01:16:12;;;;;;;6.15;5.55;;;10.90;99.90;;;;;;4909617;29;20406;-79
2023/08/29 01:18:38;;;;;;;5.43;4.88;;;10.90;99.90;;;;;;4920379;29;20083;-79
2023/08/29 01:21:29;;;;;;;7.07;5.07;;;10.90;99.90;;;;;;4920167;29;20126;-79
2023/08/29 01:24:04;;;;;;;5.10;4.20;;;10.90;99.90;;;;;;4916094;29;20471;-79
2023/08/29 01:26:30;;;;;;;5.47;4.20;;;10.80;99.90;;;;;;4917059;29;20594;-79
2023/08/29 01:28:57;;;;;;;4.80;4.30;;;10.80;99.90;;;;;;4919367;29;20039;-79
2023/08/29 01:31:29;;;;;;;4.45;3.80;;;10.80;99.90;;;;;;4917268;29;20062;-79
2023/08/29 01:33:58;;;;;;;4.35;3.95;;;10.80;99.90;;;;;;4918898;29;20028;-79
2023/08/29 01:36:27;;;;;;;4.03;3.63;;;10.70;99.90;;;;;;4916860;29;20032;-79
2023/08/29 01:38:53;;;;;;;4.97;3.72;;;10.70;99.90;;;;;;4917135;29;20101;-79
2023/08/29 01:41:19;;;;;;;4.10;3.70;;;10.70;99.90;;;;;;4918312;29;20487;-79
2023/08/29 01:43:44;;;;;;;3.80;3.40;;;10.70;99.90;;;;;;4918888;29;20495;-79
2023/08/29 01:46:10;;;;;;;4.15;3.55;;;10.70;99.90;;;;;;4917155;29;20040;-78
2023/08/29 01:48:37;;;;;;;6.25;3.55;;;10.70;99.90;;;;;;4917767;29;20047;-79
2023/08/29 01:51:02;;;;;;;4.03;3.17;;;10.70;99.90;;;;;;4919812;29;20032;-79
2023/08/29 01:53:28;;;;;;;3.20;2.83;;;10.70;99.90;;;;;;4918859;29;20128;-79
2023/08/29 01:55:57;;;;;;;3.92;3.20;;;10.60;99.90;;;;;;4921785;29;20015;-79
2023/08/29 01:58:24;;;;;;;3.92;3.42;;;10.60;99.90;;;;;;4917478;29;20054;-79
2023/08/29 02:00:50;;;;;;;3.73;3.30;;;10.60;99.90;;;;;;4919095;29;20171;-79
2023/08/29 02:03:16;;;;;;;4.28;3.17;;;10.60;99.90;;;;;;4919497;29;20032;-79
2023/08/29 02:05:42;;;;;;;6.07;3.70;;;10.60;99.90;;;;;;4918170;29;20024;-79
2023/08/29 02:08:08;;;;;;;4.97;3.63;;;10.60;99.90;;;;;;4918500;29;20079;-79
2023/08/29 02:10:33;;;;;;;5.97;3.83;;;10.60;99.90;;;;;;4918170;29;20608;-79
2023/08/29 02:12:59;;;;;;;4.93;4.27;;;10.50;99.90;;;;;;4919691;29;20420;-78
2023/08/29 02:15:24;;;;;;;4.20;3.80;;;10.50;99.90;;;;;;4916362;29;20020;-78
2023/08/29 02:17:51;;;;;;;5.70;4.43;;;10.50;99.90;;;;;;4918079;29;20030;-79
2023/08/29 02:20:16;;;;;;;6.25;4.70;;;10.50;99.90;;;;;;4915535;29;20115;-78
2023/08/29 02:22:42;;;;;;;4.40;4.00;;;10.50;99.90;;;;;;4915554;29;20510;-79
2023/08/29 02:25:08;;;;;;;6.40;4.35;;;10.60;99.90;;;;;;4916631;29;20158;-79
2023/08/29 02:27:33;;;;;;;4.87;4.37;;;10.60;99.90;;;;;;4915594;29;20028;-79
2023/08/29 02:29:59;;;;;;;5.13;4.37;;;10.60;99.90;;;;;;4914619;29;20448;-79
2023/08/29 02:32:24;;;;;;;6.07;4.70;;;10.60;99.90;;;;;;4916861;29;20032;-79
2023/08/29 02:34:50;;;;;;;5.40;4.00;;;10.60;99.90;;;;;;4919658;29;20019;-78
2023/08/29 02:37:15;;;;;;;5.03;4.50;;;10.60;99.90;;;;;;4918583;29;20340;-79
2023/08/29 02:39:41;;;;;;;5.18;4.65;;;10.60;99.90;;;;;;4916131;29;20058;-79
2023/08/29 02:42:07;;;;;;;5.80;5.00;;;10.60;99.90;;;;;;4917822;29;20209;-79
2023/08/29 02:44:33;;;;;;;5.70;5.10;;;10.60;99.90;;;;;;4918479;29;20035;-79
2023/08/29 02:46:58;;;;;;;7.25;5.65;;;10.60;99.90;;;;;;4915890;29;20032;-79
2023/08/29 02:49:24;;;;;;;6.03;5.43;;;10.60;99.90;;;;;;4916593;29;20443;-78
2023/08/29 02:51:49;;;;;;;6.57;5.88;;;10.60;99.90;;;;;;4919737;29;20537;-79
2023/08/29 02:54:15;;;;;;;6.43;5.83;;;10.70;99.90;;;;;;4917583;29;21490;-79
2023/08/29 02:56:40;;;;;;;6.22;5.63;;;10.60;99.90;;;;;;4919426;29;20499;-79
2023/08/29 02:59:06;;;;;;;7.40;5.70;;;10.60;99.90;;;;;;4916098;29;20124;-78
2023/08/29 03:01:32;;;;;;;7.07;6.38;;;10.70;99.90;;;;;;4916375;29;20032;-79
2023/08/29 03:03:57;;;;;;;7.18;6.47;;;10.70;99.90;;;;;;4917951;29;20456;-79
2023/08/29 03:06:23;;;;;;;8.45;6.50;;;10.70;99.90;;;;;;4915348;29;20024;-79
2023/08/29 03:08:48;;;;;;;6.45;5.85;;;10.70;99.90;;;;;;4918573;29;20118;-79
2023/08/29 03:11:14;;;;;;;6.55;5.90;;;10.80;99.90;;;;;;4915974;29;20032;-79
2023/08/29 03:13:39;;;;;;;7.03;6.32;;;10.80;99.90;;;;;;4917276;29;20111;-78
2023/08/29 03:16:16;;;;;;;6.63;6.03;;;10.80;99.90;;;;;;4916721;29;20656;-78
2023/08/29 03:18:42;;;;;;;6.90;6.20;;;10.80;99.90;;;;;;4915983;29;20169;-78
2023/08/29 03:21:08;;;;;;;7.10;6.40;;;10.90;99.90;;;;;;4915005;29;20096;-79
2023/08/29 03:23:34;;;;;;;6.05;5.45;;;10.80;99.90;;;;;;4917916;29;20119;-79
2023/08/29 03:26:05;;;;;;;6.30;5.70;;;10.80;99.90;;;;;;4918094;29;20438;-79
2023/08/29 03:28:30;;;;;;;7.80;5.53;;;10.90;99.90;;;;;;4916092;29;20123;-78
2023/08/29 03:30:56;;;;;;;6.28;5.65;;;10.90;99.90;;;;;;4916924;29;20036;-78
2023/08/29 03:33:21;;;;;;;6.90;5.80;;;10.90;99.90;;;;;;4917797;29;20190;-79
2023/08/29 03:35:58;;;;;;;5.78;5.22;;;10.90;99.90;;;;;;4918318;29;20032;-79
2023/08/29 03:38:23;;;;;;;6.05;5.32;;;10.90;99.90;;;;;;4916978;29;20030;-79
2023/08/29 03:40:56;;;;;;;7.15;5.38;;;10.90;99.90;;;;;;4922956;29;20514;-78
2023/08/29 03:43:22;;;;;;;6.20;5.60;;;10.90;99.90;;;;;;4919777;29;20827;-78
2023/08/29 03:46:00;;;;;;;6.00;5.40;;;10.90;99.90;;;;;;4919406;29;20032;-79
2023/08/29 03:48:26;;;;;;;5.03;4.15;;;10.90;99.90;;;;;;4921554;29;20040;-79
2023/08/29 03:50:52;;;;;;;5.85;4.53;;;10.90;99.90;;;;;;4922148;29;20031;-79
2023/08/29 03:53:18;;;;;;;4.72;4.20;;;10.90;99.90;;;;;;4920593;29;20028;-79
2023/08/29 03:55:43;;;;;;;4.65;4.20;;;11.00;99.90;;;;;;4918977;29;20028;-78
2023/08/29 03:58:09;;;;;;;5.10;4.07;;;10.90;99.90;;;;;;4919043;29;20122;-79
2023/08/29 04:00:35;;;;;;;4.38;3.97;;;10.90;99.90;;;;;;4921360;29;20040;-79
2023/08/29 04:03:01;;;;;;;4.45;4.05;;;10.90;99.90;;;;;;4919589;29;20024;-78
2023/08/29 04:05:27;;;;;;;3.97;3.58;;;10.90;99.90;;;;;;4919085;29;20518;-79
2023/08/29 04:07:53;;;;;;;4.30;3.90;;;10.90;99.90;;;;;;4916445;29;20087;-79
2023/08/29 04:10:19;;;;;;;4.38;3.90;;;10.90;99.90;;;;;;4917331;29;20044;-78
2023/08/29 04:12:44;;;;;;;4.28;3.83;;;10.90;99.90;;;;;;4919604;29;20218;-79
2023/08/29 04:15:12;;;;;;;3.90;3.50;;;10.90;99.90;;;;;;4920403;29;20732;-79
2023/08/29 04:17:38;;;;;;;4.45;4.00;;;10.90;99.90;;;;;;4918953;29;20842;-79
2023/08/29 04:20:08;;;;;;;4.53;3.90;;;10.90;99.90;;;;;;4918106;29;20028;-78
2023/08/29 04:22:35;;;;;;;4.18;3.78;;;10.90;99.90;;;;;;4918977;29;20036;-78
2023/08/29 04:25:01;;;;;;;5.10;3.88;;;10.90;99.90;;;;;;4919743;29;20118;-80
2023/08/29 04:27:27;;;;;;;4.45;4.05;;;10.90;99.90;;;;;;4920828;29;20031;-80
2023/08/29 04:29:52;;;;;;;4.13;3.72;;;10.90;99.90;;;;;;4921501;29;20495;-80
2023/08/29 04:32:18;;;;;;;4.30;3.75;;;10.90;99.90;;;;;;4921286;29;20451;-80
2023/08/29 04:34:43;;;;;;;4.15;3.75;;;10.90;99.90;;;;;;4919576;29;20776;-80
2023/08/29 04:37:10;;;;;;;4.10;3.70;;;11.00;99.90;;;;;;4919494;29;20067;-80
2023/08/29 04:39:36;;;;;;;3.72;3.35;;;11.00;99.90;;;;;;4920921;29;20028;-80
2023/08/29 04:42:01;;;;;;;4.50;4.03;;;11.00;99.90;;;;;;4920420;29;20099;-80
2023/08/29 04:44:28;;;;;;;5.03;3.22;;;11.00;99.90;;;;;;4921860;29;20020;-80
2023/08/29 04:46:54;;;;;;;3.75;3.30;;;11.00;99.90;;;;;;4920326;29;20027;-80
2023/08/29 04:49:20;;;;;;;3.30;3.00;;;11.00;99.90;;;;;;4919422;29;20834;-80
2023/08/29 04:51:46;;;;;;;2.95;2.65;;;11.00;99.90;;;;;;4918090;29;20040;-80
2023/08/29 04:54:12;;;;;;;3.10;2.80;;;11.00;99.90;;;;;;4920953;29;21423;-80
2023/08/29 04:56:37;;;;;;;3.80;2.78;;;11.10;99.90;;;;;;4921405;29;20047;-80
2023/08/29 04:59:03;;;;;;;4.00;2.45;;;11.10;99.90;;;;;;4921739;29;20031;-80
2023/08/29 05:01:29;;;;;;;2.88;2.50;;;11.10;99.90;;;;;;4921406;29;20046;-80
2023/08/29 05:03:55;;;;;;;3.75;2.33;;;11.10;99.90;;;;;;4922627;29;20032;-80
2023/08/29 05:06:20;;;;;;;2.92;2.50;;;11.20;99.90;;;;;;4925868;29;20023;-81
2023/08/29 05:08:46;;;;;;;3.67;2.30;;;11.20;99.90;;;;;;4924101;29;20034;-80
2023/08/29 05:11:11;;;;;;;3.30;2.15;;;11.20;99.90;;;;;;4922480;29;20040;-80
2023/08/29 05:13:37;;;;;;;2.90;2.33;;;11.20;99.90;;;;;;4918689;29;20099;-80
2023/08/29 05:16:03;;;;;;;2.72;2.42;;;11.20;99.90;;;;;;4919083;29;20036;-81
2023/08/29 05:18:28;;;;;;;4.40;2.38;;;11.20;99.90;;;;;;4917609;29;20555;-80
2023/08/29 05:20:55;;;;;;;3.88;2.33;;;11.30;99.90;;;;;;4918288;29;20051;-81
2023/08/29 05:23:21;;;;;;;2.20;2.00;;;11.30;99.90;;;;;;4921293;29;20558;-81
2023/08/29 05:25:47;;;;;;;2.67;2.15;;;11.30;99.90;;;;;;4918320;29;20028;-81
2023/08/29 05:28:13;;;;;;;2.47;2.28;;;11.30;99.90;;;;;;4918016;29;20030;-82
2023/08/29 05:30:38;;;;;;;2.60;2.40;;;11.30;99.90;;;;;;4922454;29;20046;-83
2023/08/29 05:33:04;;;;;;;2.38;2.00;;;11.30;99.90;;;;;;4921628;29;20756;-82
2023/08/29 05:35:30;;;;;;;2.42;1.88;;;11.30;99.90;;;;;;4920698;29;20131;-82
2023/08/29 05:37:55;;;;;;;2.72;1.77;;;11.40;99.90;;;;;;4921337;29;20039;-81
2023/08/29 05:40:21;;;;;;;2.60;2.05;;;11.40;99.90;;;;;;4923602;29;20150;-82
2023/08/29 05:42:47;;;;;;;2.25;1.63;;;11.40;99.90;;;;;;4924376;29;20032;-82
2023/08/29 05:45:12;;;;;;;2.50;1.98;;;11.40;99.90;;;;;;4923031;29;20491;-82
2023/08/29 05:47:38;;;;;;;1.90;1.58;;;11.40;99.90;;;;;;4922226;29;20031;-82
2023/08/29 05:50:04;;;;;;;2.03;1.75;;;11.40;99.90;;;;;;4922341;29;20039;-82
2023/08/29 05:52:29;;;;;;;1.90;1.70;;;11.40;99.90;;;;;;4921694;29;20039;-82
2023/08/29 05:54:55;;;;;;;2.50;1.90;;;11.50;99.90;;;;;;4922478;29;20036;-86
2023/08/29 05:57:21;;;;;;;2.35;1.90;;;11.50;99.90;;;;;;4922227;29;20518;-82
2023/08/29 05:59:47;;;;;;;2.25;1.85;;;11.50;99.90;;;;;;4922384;29;20043;-82
2023/08/29 06:02:12;;;;;;;2.10;1.90;;;11.50;99.90;;;;;;4921285;29;20032;-82
2023/08/29 06:04:38;;;;;;;3.55;2.92;;;11.60;99.90;;;;;;4921712;29;20546;-82
2023/08/29 06:07:05;;;;;;;3.10;2.80;;;11.60;99.90;;;;;;4922197;29;20165;-82
2023/08/29 06:09:32;;;;;;;3.22;2.70;;;11.60;99.90;;;;;;4920607;29;20036;-82
2023/08/29 06:11:59;;;;;;;4.75;3.10;;;11.60;99.90;;;;;;4923202;29;20051;-82
2023/08/29 06:14:24;;;;;;;4.22;3.80;;;11.70;99.90;;;;;;4922293;29;20027;-82
2023/08/29 06:16:50;;;;;;;4.55;4.15;;;11.70;99.90;;;;;;4920969;29;20294;-83
2023/08/29 06:19:16;;;;;;;4.50;4.10;;;11.70;99.90;;;;;;4921393;29;20111;-82
2023/08/29 06:21:42;;;;;;;5.00;4.47;;;11.60;99.90;;;;;;4920408;29;20038;-83
2023/08/29 06:24:08;;;;;;;5.30;4.80;;;11.60;99.90;;;;;;4923064;29;20028;-82
2023/08/29 06:26:33;;;;;;;7.18;5.43;;;11.70;99.90;;;;;;4921470;29;20767;-82
2023/08/29 06:28:59;;;;;;;6.50;5.80;;;11.70;99.90;;;;;;4921111;29;20032;-83
2023/08/29 06:31:24;;;;;;;6.30;5.70;;;11.70;99.90;;;;;;4920856;29;20089;-82
2023/08/29 06:33:50;;;;;;;6.40;5.80;;;11.70;99.90;;;;;;4919938;29;20042;-82
2023/08/29 06:36:15;;;;;;;6.03;5.07;;;11.70;99.90;;;;;;4919881;29;20052;-82
2023/08/29 06:38:42;;;;;;;5.72;5.13;;;11.70;99.90;;;;;;4910835;29;20034;-83
2023/08/29 06:41:08;;;;;;;6.20;5.30;;;11.70;99.90;;;;;;4913673;29;20628;-82
2023/08/29 06:43:34;;;;;;;6.20;5.60;;;11.70;99.90;;;;;;4914200;29;20040;-83
2023/08/29 06:46:00;;;;;;;5.60;5.10;;;11.70;99.90;;;;;;4913539;29;20031;-82
2023/08/29 06:48:25;;;;;;;5.47;4.93;;;11.70;99.90;;;;;;4914347;29;20040;-83
2023/08/29 06:50:51;;;;;;;6.38;5.38;;;11.70;99.90;;;;;;4913051;29;20048;-83
2023/08/29 06:53:16;;;;;;;5.30;4.80;;;11.80;99.90;;;;;;4912614;29;20060;-83
2023/08/29 06:55:42;;;;;;;4.72;4.15;;;11.80;99.90;;;;;;4915092;29;20163;-83
2023/08/29 06:58:07;;;;;;;5.35;4.47;;;11.80;99.90;;;;;;4916715;29;20039;-83
2023/08/29 07:00:34;;;;;;;4.68;4.20;;;11.80;99.90;;;;;;4916037;29;20052;-82
2023/08/29 07:03:00;;;;;;;4.20;3.80;;;11.90;99.90;;;;;;4912914;29;20114;-83
2023/08/29 07:05:29;;;;;;;4.38;3.97;;;11.90;99.90;;;;;;4916862;29;20031;-83
2023/08/29 07:07:55;;;;;;;4.00;3.60;;;11.90;99.90;;;;;;4916615;29;20047;-82
2023/08/29 07:10:21;;;;;;;3.83;3.40;;;11.90;99.90;;;;;;4918621;29;20118;-83
2023/08/29 07:12:48;;;;;;;2.53;2.33;;;12.00;99.90;;;;;;4915957;29;20107;-82
2023/08/29 07:15:14;;;;;;;3.60;2.70;;;12.00;99.90;;;;;;4916528;29;20028;-83
2023/08/29 07:17:40;;;;;;;3.13;2.78;;;12.00;99.90;;;;;;4913579;29;20031;-82
2023/08/29 07:20:09;;;;;;;3.75;2.60;;;12.10;99.90;;;;;;4910515;29;20035;-83
2023/08/29 07:22:38;;;;;;;2.63;2.22;;;12.10;99.90;;;;;;4911057;29;20058;-82
2023/08/29 07:25:05;;;;;;;2.00;1.80;;;12.20;99.90;;;;;;4912687;29;20041;-83
2023/08/29 07:27:31;;;;;;;1.70;1.58;;;12.30;99.90;;;;;;4911208;29;21993;-83
2023/08/29 07:29:57;;;;;;;2.45;1.52;;;12.30;99.90;;;;;;4913037;29;21103;-82
2023/08/29 07:32:23;;;;;;;1.75;1.40;;;12.30;99.90;;;;;;4911219;29;20087;-82
2023/08/29 07:34:48;;;;;;;2.28;1.50;;;12.40;99.90;;;;;;4912296;29;20052;-84
2023/08/29 07:37:14;;;;;;;1.75;1.50;;;12.30;99.90;;;;;;4912394;29;20032;-83
2023/08/29 07:39:39;;;;;;;1.40;1.30;;;12.40;99.90;;;;;;4911121;29;20044;-84
2023/08/29 07:42:05;;;;;;;1.77;1.50;;;12.40;99.90;;;;;;4911952;29;20036;-83
2023/08/29 07:44:31;;;;;;;2.28;1.20;;;12.40;99.90;;;;;;4911998;29;20042;-83
2023/08/29 07:46:57;;;;;;;1.42;1.10;;;12.40;99.90;;;;;;4910101;29;20130;-84
2023/08/29 07:49:22;;;;;;;1.20;1.10;;;12.50;99.90;;;;;;4910891;29;20028;-84
2023/08/29 07:51:52;;;;;;;1.17;1.08;;;12.50;99.90;;;;;;4912533;29;20043;-84
2023/08/29 07:54:17;;;;;;;1.20;1.10;;;12.50;99.90;;;;;;4912959;29;20060;-84
2023/08/29 07:56:43;;;;;;;1.65;1.20;;;12.60;99.90;;;;;;4911452;29;20122;-84
2023/08/29 07:59:09;;;;;;;1.10;1.00;;;12.50;99.90;;;;;;4910904;29;20050;-84
2023/08/29 08:01:35;;;;;;;1.20;1.10;;;12.50;99.90;;;;;;4910845;29;20035;-84
2023/08/29 08:04:01;;;;;;;1.23;1.13;;;12.50;99.90;;;;;;4911030;29;20111;-84
2023/08/29 08:06:27;;;;;;;2.08;1.17;;;12.50;99.90;;;;;;4910013;29;20042;-84
2023/08/29 08:08:54;;;;;;;2.38;1.13;;;12.40;99.90;;;;;;4910051;29;20588;-83
2023/08/29 08:11:20;;;;;;;1.70;1.40;;;12.40;99.90;;;;;;4911190;29;20034;-84
2023/08/29 08:13:46;;;;;;;3.05;1.58;;;12.40;99.90;;;;;;4910965;29;20063;-84
2023/08/29 08:16:12;;;;;;;1.67;1.30;;;12.40;99.90;;;;;;4912461;29;20043;-84
2023/08/29 08:18:37;;;;;;;1.90;1.70;;;12.40;99.90;;;;;;4910326;29;20031;-83
2023/08/29 08:21:03;;;;;;;2.08;1.52;;;12.40;99.90;;;;;;4911710;29;20052;-84
2023/08/29 08:23:29;;;;;;;2.00;1.48;;;12.40;99.90;;;;;;4909566;29;20989;-83
2023/08/29 08:25:54;;;;;;;1.95;1.40;;;12.40;99.90;;;;;;4913380;29;20040;-84
2023/08/29 08:28:21;;;;;;;4.38;2.17;;;12.40;99.90;;;;;;4912591;29;20042;-84
2023/08/29 08:30:48;;;;;;;1.85;1.63;;;12.40;99.90;;;;;;4913504;29;20052;-84
2023/08/29 08:33:13;;;;;;;1.65;1.48;;;12.40;99.90;;;;;;4914151;29;20024;-84
2023/08/29 08:35:39;;;;;;;1.88;1.52;;;12.40;99.90;;;;;;4914130;29;20147;-84
2023/08/29 08:38:07;;;;;;;1.60;1.50;;;12.40;99.90;;;;;;4911499;29;20024;-84
2023/08/29 08:40:34;;;;;;;3.17;1.70;;;12.50;99.90;;;;;;4910610;29;20061;-83
2023/08/29 08:43:04;;;;;;;1.80;1.70;;;12.50;99.90;;;;;;4911787;29;20063;-84
2023/08/29 08:45:30;;;;;;;1.58;1.40;;;12.50;99.90;;;;;;4913974;29;20043;-83
2023/08/29 08:47:59;;;;;;;1.70;1.60;;;12.50;99.90;;;;;;4912928;29;20060;-83
2023/08/29 08:50:25;;;;;;;1.92;1.50;;;12.50;99.90;;;;;;4913431;29;20042;-83
2023/08/29 08:52:51;;;;;;;1.60;1.30;;;12.50;99.90;;;;;;4912645;29;20035;-84
2023/08/29 08:55:17;;;;;;;1.27;1.17;;;12.60;99.90;;;;;;4912213;29;20040;-84
2023/08/29 08:57:43;;;;;;;1.70;1.50;;;12.50;99.90;;;;;;4912508;29;20035;-84
2023/08/29 09:00:09;;;;;;;2.00;1.30;;;12.50;99.90;;;;;;4912475;29;20459;-84
2023/08/29 09:02:39;;;;;;;1.50;1.35;;;12.60;99.90;;;;;;4911449;29;20028;-84
2023/08/29 09:05:05;;;;;;;1.52;1.42;;;12.60;99.90;;;;;;4912917;29;20118;-84
2023/08/29 09:07:31;;;;;;;1.45;1.33;;;12.70;99.90;;;;;;4910684;29;20087;-84
2023/08/29 09:10:15;;;;;;;2.03;1.50;;;12.70;99.90;;;;;;4913566;29;20043;-84
2023/08/29 09:12:48;;;;;;;2.13;1.60;;;12.70;99.90;;;;;;4915983;29;20846;-84
2023/08/29 09:15:16;;;;;;;1.83;1.40;;;12.80;99.90;;;;;;4916136;29;20047;-84
2023/08/29 09:17:49;;;;;;;1.98;1.70;;;12.80;99.90;;;;;;4917417;29;20112;-84
2023/08/29 09:20:16;;;;;;;3.20;1.50;;;12.80;99.90;;;;;;4923371;29;20693;-84
2023/08/29 09:22:42;;;;;;;1.30;1.20;;;12.90;99.90;;;;;;4921601;29;20035;-83
2023/08/29 09:25:11;;;;;;;1.95;1.30;;;13.00;99.90;;;;;;4922873;29;20143;-83
2023/08/29 09:27:45;;;;;;;1.45;1.20;;;13.10;99.90;;;;;;4920648;29;20038;-84
2023/08/29 09:30:12;;;;;;;1.60;1.45;;;13.10;99.90;;;;;;4922170;29;20040;-83
2023/08/29 09:32:42;;;;;;;1.20;1.10;;;13.20;99.90;;;;;;4920392;29;20154;-84
2023/08/29 09:35:10;;;;;;;2.22;1.20;;;13.20;99.90;;;;;;4919550;29;20114;-84
2023/08/29 09:37:40;;;;;;;1.30;1.20;;;13.30;99.90;;;;;;4922152;29;20032;-84
2023/08/29 09:40:07;;;;;;;1.33;1.20;;;13.20;99.90;;;;;;4923092;29;20427;-84
2023/08/29 09:42:32;;;;;;;1.50;1.30;;;13.30;99.90;;;;;;4921978;29;20039;-83
2023/08/29 09:44:58;;;;;;;1.83;1.30;;;13.30;99.90;;;;;;4921804;29;20035;-84
2023/08/29 09:47:24;;;;;;;1.60;1.00;;;13.30;99.90;;;;;;4921402;29;20728;-83
2023/08/29 09:49:50;;;;;;;1.77;1.30;;;13.40;99.90;;;;;;4921641;29;20031;-84
2023/08/29 09:52:16;;;;;;;1.88;1.40;;;13.40;99.90;;;;;;4921954;29;20115;-84
2023/08/29 09:54:50;;;;;;;1.20;1.10;;;13.40;99.90;;;;;;4919903;29;20115;-83
2023/08/29 09:57:19;;;;;;;1.73;1.35;;;13.50;99.90;;;;;;4918669;29;20036;-84
2023/08/29 09:59:45;;;;;;;2.08;1.50;;;13.60;99.90;;;;;;4920891;29;21383;-84
2023/08/29 10:02:12;;;;;;;1.42;1.10;;;13.70;99.90;;;;;;4919624;29;20137;-85
2023/08/29 10:05:09;;;;;;;1.42;1.15;;;13.80;99.90;;;;;;4918237;29;20036;-84
2023/08/29 10:07:42;;;;;;;2.20;1.40;;;13.80;99.90;;;;;;4906137;29;20043;-84
2023/08/29 10:10:10;;;;;;;1.20;1.10;;;13.90;99.90;;;;;;4916954;29;20027;-84
2023/08/29 10:12:36;;;;;;;1.42;1.20;;;13.90;99.90;;;;;;4917037;29;20031;-84
2023/08/29 10:15:04;;;;;;;2.42;1.30;;;13.90;99.90;;;;;;4919636;29;20027;-84
2023/08/29 10:17:34;;;;;;;1.23;1.00;;;13.90;99.90;;;;;;4919145;29;20833;-83
2023/08/29 10:20:00;;;;;;;1.70;1.10;;;13.90;99.90;;;;;;4917311;29;20035;-84
2023/08/29 10:22:30;;;;;;;1.23;1.00;;;14.00;99.90;;;;;;4917697;29;20060;-84
2023/08/29 10:25:00;;;;;;;1.08;0.98;;;14.10;99.90;;;;;;4918116;29;20032;-84
2023/08/29 10:27:26;;;;;;;0.80;0.80;;;14.20;99.90;;;;;;4915984;29;20043;-84
2023/08/29 10:29:51;;;;;;;1.10;1.00;;;14.30;99.90;;;;;;4918946;29;20023;-83
2023/08/29 10:32:19;;;;;;;1.75;1.10;;;14.40;99.90;;;;;;4916362;29;20039;-84
2023/08/29 10:34:44;;;;;;;1.23;1.00;;;14.50;99.90;;;;;;4917886;29;20031;-84
2023/08/29 10:37:19;;;;;;;2.35;0.90;;;14.60;99.90;;;;;;4917593;29;20028;-84
2023/08/29 10:39:45;;;;;;;0.80;0.80;;;14.60;99.90;;;;;;4916322;29;20055;-84
2023/08/29 10:42:15;;;;;;;1.42;1.10;;;14.50;99.90;;;;;;4918643;29;20493;-84
2023/08/29 10:44:42;;;;;;;1.40;1.02;;;14.50;99.90;;;;;;4918770;29;20032;-84
2023/08/29 10:47:20;;;;;;;1.20;1.10;;;14.60;99.90;;;;;;4918569;29;20423;-85
2023/08/29 10:49:47;;;;;;;1.60;1.23;;;14.70;99.90;;;;;;4916079;29;20028;-84
2023/08/29 10:52:13;;;;;;;1.05;0.95;;;14.70;99.90;;;;;;4918814;29;20034;-84
2023/08/29 10:54:40;;;;;;;1.73;1.10;;;14.80;99.90;;;;;;4919311;29;20103;-84
2023/08/29 10:57:29;;;;;;;2.22;0.88;;;14.80;99.90;;;;;;4917586;29;20032;-84
2023/08/29 10:59:56;;;;;;;1.65;0.93;;;14.90;99.90;;;;;;4919454;29;20651;-84
2023/08/29 11:02:32;;;;;;;0.80;0.80;;;15.00;99.90;;;;;;4919485;29;20035;-85
2023/08/29 11:05:03;;;;;;;1.30;0.98;;;15.10;99.90;;;;;;4918673;29;20023;-85
2023/08/29 11:07:29;;;;;;;0.80;0.80;;;15.30;99.90;;;;;;4916844;29;20023;-83
2023/08/29 11:10:13;;;;;;;0.70;0.70;;;15.20;99.90;;;;;;4918631;29;20503;-84
2023/08/29 11:13:07;;;;;;;1.38;0.90;;;15.10;99.90;;;;;;4921201;29;20038;-84
2023/08/29 11:15:51;;;;;;;0.98;0.90;;;15.00;99.90;;;;;;4923372;29;20038;-84
2023/08/29 11:18:32;;;;;;;1.20;0.90;;;14.90;99.90;;;;;;4920722;29;20108;-85
2023/08/29 11:21:03;;;;;;;1.30;1.10;;;15.00;99.90;;;;;;4921821;29;20653;-84
2023/08/29 11:23:33;;;;;;;1.15;1.05;;;15.10;99.90;;;;;;4921564;29;20027;-84
2023/08/29 11:25:59;;;;;;;0.70;0.70;;;15.10;99.90;;;;;;4920765;29;20052;-84
2023/08/29 11:28:25;;;;;;;1.10;0.80;;;15.10;99.90;;;;;;4919388;29;20054;-85
2023/08/29 11:30:51;;;;;;;0.85;0.80;;;15.10;99.90;;;;;;4917311;29;20198;-85
2023/08/29 11:33:16;;;;;;;1.35;1.00;;;15.10;99.90;;;;;;4919703;29;20050;-84
2023/08/29 11:35:44;;;;;;;1.35;1.00;;;14.90;99.90;;;;;;4916554;29;20032;-83
2023/08/29 11:38:10;;;;;;;2.70;1.02;;;14.80;99.90;;;;;;4917061;29;20033;-86
2023/08/29 11:40:36;;;;;;;2.13;1.08;;;14.80;99.90;;;;;;4916873;29;20024;-84
2023/08/29 11:43:02;;;;;;;1.58;1.00;;;14.80;99.90;;;;;;4918140;29;20020;-84
2023/08/29 11:45:30;;;;;;;0.75;0.70;;;14.80;99.90;;;;;;4917183;29;20083;-84
2023/08/29 11:47:56;;;;;;;1.00;0.90;;;14.80;99.90;;;;;;4918878;29;20396;-82
2023/08/29 11:50:22;;;;;;;1.38;0.80;;;14.90;99.90;;;;;;4917450;29;20046;-82
2023/08/29 11:52:48;;;;;;;0.47;0.47;;;14.90;99.90;;;;;;4917685;29;20840;-82
2023/08/29 11:55:16;;;;;;;1.42;0.70;;;14.80;99.90;;;;;;4917843;29;20023;-85
2023/08/29 11:57:44;;;;;;;0.88;0.73;;;14.70;99.90;;;;;;4917906;29;20025;-81
2023/08/29 12:00:12;;;;;;;0.80;0.80;;;14.70;99.90;;;;;;4919469;29;20038;-81
2023/08/29 12:02:39;;;;;;;2.13;0.80;;;14.70;99.90;;;;;;4922260;29;20047;-82
2023/08/29 12:05:08;;;;;;;0.75;0.60;;;14.60;99.90;;;;;;4923760;29;20028;-81
2023/08/29 12:07:34;;;;;;;1.10;0.80;;;14.60;99.90;;;;;;4921401;29;20083;-80
2023/08/29 12:10:16;;;;;;;1.30;0.98;;;14.60;99.90;;;;;;4920758;29;20032;-81
2023/08/29 12:12:42;;;;;;;1.65;0.80;;;14.50;99.90;;;;;;4922117;29;20028;-81
2023/08/29 12:15:14;;;;;;;0.80;0.80;;;14.50;99.90;;;;;;4922609;29;20079;-81
2023/08/29 12:17:41;;;;;;;1.13;0.90;;;14.40;99.90;;;;;;4921272;29;20031;-82
2023/08/29 12:20:16;;;;;;;1.23;0.80;;;14.30;99.90;;;;;;4923017;29;20024;-83
2023/08/29 12:22:47;;;;;;;1.00;0.90;;;14.30;99.90;;;;;;4923249;29;20056;-83
2023/08/29 12:25:13;;;;;;;2.42;1.00;;;14.30;99.90;;;;;;4918701;29;20171;-81
2023/08/29 12:27:44;;;;;;;1.98;1.00;;;14.30;99.90;;;;;;4917456;29;20578;-81
2023/08/29 12:30:14;;;;;;;1.25;0.93;;;14.40;99.90;;;;;;4921615;29;20527;-82
2023/08/29 12:32:44;;;;;;;1.08;0.90;;;14.40;99.90;;;;;;4920591;29;20166;-81
2023/08/29 12:35:10;;;;;;;1.02;0.90;;;14.50;99.90;;;;;;4920278;29;20024;-81
2023/08/29 12:37:36;;;;;;;1.38;1.02;;;14.50;99.90;;;;;;4918557;29;20062;-81
2023/08/29 12:40:08;;;;;;;1.10;1.00;;;14.60;99.90;;;;;;4920590;29;20742;-81
2023/08/29 12:42:33;;;;;;;1.70;1.08;;;14.60;99.90;;;;;;4920265;29;20123;-81
2023/08/29 12:44:59;;;;;;;2.92;1.10;;;14.60;99.90;;;;;;4920724;29;20036;-81
2023/08/29 12:47:25;;;;;;;1.33;1.23;;;14.50;99.90;;;;;;4918937;29;20726;-82
2023/08/29 12:49:51;;;;;;;1.08;0.98;;;14.40;99.90;;;;;;4918776;29;20148;-82